createdAt,value
2018-11-28T00:01:55.646Z,19.90
2018-11-28T00:04:23.040Z,21.13
2018-11-28T00:06:51.012Z,20.57
2018-11-28T00:09:18.355Z,20.50
2018-11-28T00:11:45.743Z,20.53
2018-11-28T00:14:13.116Z,20.57
2018-11-28T00:16:40.566Z,21.57
2018-11-28T00:19:07.913Z,20.33
2018-11-28T00:21:35.293Z,19.93
2018-11-28T00:24:03.493Z,20.50
2018-11-28T00:26:30.841Z,20.33
2018-11-28T00:28:58.291Z,22.87
2018-11-28T00:31:25.742Z,20.70
2018-11-28T00:33:53.257Z,20.07
2018-11-28T00:36:20.659Z,20.30
2018-11-28T00:38:48.028Z,21.17
2018-11-28T00:41:15.411Z,19.77
2018-11-28T00:43:42.785Z,19.33
2018-11-28T00:46:13.890Z,20.63
2018-11-28T00:48:41.374Z,20.87
2018-11-28T00:51:08.837Z,20.00
2018-11-28T00:53:36.976Z,21.07
2018-11-28T00:56:04.351Z,19.50
2018-11-28T00:58:31.822Z,21.83
2018-11-28T01:00:59.265Z,21.57
2018-11-28T01:03:32.932Z,21.53
2018-11-28T01:06:00.363Z,22.47
2018-11-28T01:08:27.823Z,22.20
2018-11-28T01:10:55.161Z,20.50
2018-11-28T01:13:22.527Z,21.10
2018-11-28T01:15:49.956Z,20.37
2018-11-28T01:18:17.329Z,22.77
2018-11-28T01:20:44.739Z,20.93
2018-11-28T01:23:12.104Z,22.80
2018-11-28T01:25:39.459Z,23.07
2018-11-28T01:28:06.936Z,22.30
2018-11-28T01:30:34.347Z,22.50
2018-11-28T01:33:01.728Z,23.40
2018-11-28T01:35:29.191Z,21.87
2018-11-28T01:37:56.647Z,23.67
2018-11-28T01:40:24.445Z,23.00
2018-11-28T01:42:52.036Z,23.23
2018-11-28T01:45:20.799Z,22.93
2018-11-28T01:47:48.182Z,23.07
2018-11-28T01:50:17.637Z,23.60
2018-11-28T01:52:45.061Z,22.87
2018-11-28T01:55:14.225Z,23.37
2018-11-28T01:57:41.619Z,24.20
2018-11-28T02:00:15.208Z,23.30
2018-11-28T02:02:42.633Z,24.27
2018-11-28T02:05:11.004Z,23.97
2018-11-28T02:07:38.496Z,24.13
2018-11-28T02:10:10.021Z,24.63
2018-11-28T02:12:37.433Z,23.27
2018-11-28T02:15:05.983Z,24.40
2018-11-28T02:17:33.423Z,24.80
2018-11-28T02:20:00.963Z,24.00
2018-11-28T02:22:28.381Z,24.10
2018-11-28T02:24:55.770Z,23.97
2018-11-28T02:27:23.207Z,22.53
2018-11-28T02:29:50.587Z,24.00
2018-11-28T02:32:18.387Z,24.63
2018-11-28T02:34:45.877Z,23.23
2018-11-28T02:37:13.356Z,23.53
2018-11-28T02:39:40.738Z,23.70
2018-11-28T02:42:08.113Z,22.67
2018-11-28T02:44:35.562Z,22.80
2018-11-28T02:47:03.065Z,23.23
2018-11-28T02:49:30.513Z,23.07
2018-11-28T02:51:57.923Z,24.23
2018-11-28T02:54:25.270Z,22.93
2018-11-28T02:56:52.777Z,25.10
2018-11-28T02:59:20.116Z,23.03
2018-11-28T03:01:47.684Z,22.70
2018-11-28T03:04:15.030Z,23.83
2018-11-28T03:06:42.388Z,24.73
2018-11-28T03:09:09.736Z,22.97
2018-11-28T03:11:37.178Z,23.63
2018-11-28T03:14:04.918Z,23.57
2018-11-28T03:16:32.387Z,23.03
2018-11-28T03:18:59.757Z,23.50
2018-11-28T03:21:27.082Z,22.47
2018-11-28T03:23:54.445Z,22.87
2018-11-28T03:26:21.797Z,23.60
2018-11-28T03:28:49.456Z,24.63
2018-11-28T03:31:17.020Z,23.30
2018-11-28T03:33:44.399Z,23.67
2018-11-28T03:36:11.835Z,23.40
2018-11-28T03:38:39.192Z,22.13
2018-11-28T03:41:06.545Z,23.67
2018-11-28T03:43:34.592Z,23.97
2018-11-28T03:46:01.952Z,22.23
2018-11-28T03:48:29.340Z,23.77
2018-11-28T03:50:56.682Z,24.53
2018-11-28T03:53:24.040Z,24.83
2018-11-28T03:55:51.512Z,26.23
2018-11-28T03:58:18.845Z,25.50
2018-11-28T04:00:46.331Z,25.40
2018-11-28T04:03:13.772Z,26.70
2018-11-28T04:05:41.280Z,25.50
2018-11-28T04:08:08.622Z,26.63
2018-11-28T04:10:36.007Z,25.03
2018-11-28T04:13:03.516Z,27.60
2018-11-28T04:15:30.881Z,26.70
2018-11-28T04:17:58.304Z,28.20
2018-11-28T04:20:30.238Z,27.77
2018-11-28T04:22:57.736Z,30.10
2018-11-28T04:25:25.218Z,29.70
2018-11-28T04:27:52.632Z,28.57
2018-11-28T04:30:22.134Z,28.93
2018-11-28T04:32:50.175Z,28.03
2018-11-28T04:35:17.646Z,30.07
2018-11-28T04:37:45.609Z,27.87
2018-11-28T04:40:14.092Z,28.80
2018-11-28T04:42:42.025Z,30.13
2018-11-28T04:45:11.895Z,29.67
2018-11-28T04:47:39.913Z,29.70
2018-11-28T04:50:08.611Z,30.13
2018-11-28T04:52:35.971Z,29.17
2018-11-28T04:55:04.978Z,31.43
2018-11-28T04:57:32.467Z,31.27
2018-11-28T04:59:59.890Z,32.40
2018-11-28T05:02:27.377Z,30.80
2018-11-28T05:04:54.863Z,28.43
2018-11-28T05:07:25.517Z,30.03
2018-11-28T05:09:53.142Z,28.73
2018-11-28T05:12:21.122Z,30.77
2018-11-28T05:14:48.606Z,27.70
2018-11-28T05:17:16.019Z,29.87
2018-11-28T05:19:43.373Z,28.33
2018-11-28T05:22:10.860Z,27.87
2018-11-28T05:24:38.376Z,29.30
2018-11-28T05:27:05.708Z,29.20
2018-11-28T05:29:33.282Z,28.83
2018-11-28T05:32:00.644Z,29.43
2018-11-28T05:34:28.016Z,30.30
2018-11-28T05:36:55.376Z,28.70
2018-11-28T05:39:23.052Z,27.57
2018-11-28T05:41:50.390Z,30.23
2018-11-28T05:44:17.780Z,28.57
2018-11-28T05:46:45.154Z,28.30
2018-11-28T05:49:15.125Z,28.47
2018-11-28T05:51:40.029Z,29.73
2018-11-28T05:54:07.510Z,31.43
2018-11-28T05:56:34.960Z,28.87
2018-11-28T05:59:03.457Z,29.43
2018-11-28T06:01:29.811Z,30.43
2018-11-28T06:03:57.311Z,29.93
2018-11-28T06:06:24.673Z,28.97
2018-11-28T06:08:52.684Z,29.67
2018-11-28T06:11:20.177Z,29.93
2018-11-28T06:13:47.531Z,29.73
2018-11-28T06:16:15.076Z,29.63
2018-11-28T06:18:42.481Z,30.70
2018-11-28T06:21:09.845Z,29.20
2018-11-28T06:23:37.192Z,30.03
2018-11-28T06:26:05.017Z,28.67
2018-11-28T06:28:32.445Z,28.83
2018-11-28T06:30:59.846Z,28.30
2018-11-28T06:33:27.221Z,28.20
2018-11-28T06:35:54.712Z,28.47
2018-11-28T06:38:22.047Z,27.20
2018-11-28T06:40:49.543Z,29.23
2018-11-28T06:43:17.007Z,28.27
2018-11-28T06:45:44.365Z,28.90
2018-11-28T06:48:11.732Z,28.83
2018-11-28T06:50:39.213Z,29.67
2018-11-28T06:53:06.748Z,27.87
2018-11-28T06:55:34.141Z,27.90
2018-11-28T06:58:01.513Z,28.90
2018-11-28T07:00:29.424Z,28.97
2018-11-28T07:02:56.792Z,29.03
2018-11-28T07:05:24.896Z,28.50
2018-11-28T07:07:52.712Z,29.27
2018-11-28T07:10:21.173Z,29.97
2018-11-28T07:12:48.572Z,28.80
2018-11-28T07:15:20.088Z,27.27
2018-11-28T07:17:47.466Z,30.70
2018-11-28T07:20:15.852Z,30.43
2018-11-28T07:22:43.324Z,29.87
2018-11-28T07:25:12.714Z,29.30
2018-11-28T07:27:45.116Z,28.43
2018-11-28T07:30:11.142Z,28.83
2018-11-28T07:32:38.640Z,29.47
2018-11-28T07:35:06.754Z,29.43
2018-11-28T07:37:34.132Z,30.73
2018-11-28T07:40:01.548Z,29.30
2018-11-28T07:42:28.892Z,28.83
2018-11-28T07:44:56.304Z,28.77
2018-11-28T07:47:23.664Z,31.57
2018-11-28T07:49:51.048Z,32.37
2018-11-28T07:52:18.479Z,31.17
2018-11-28T07:54:45.872Z,28.23
2018-11-28T07:57:13.496Z,29.97
2018-11-28T07:59:40.861Z,31.30
2018-11-28T08:02:08.291Z,29.97
2018-11-28T08:04:35.708Z,30.07
2018-11-28T08:07:03.163Z,31.47
2018-11-28T08:09:30.538Z,34.43
2018-11-28T08:11:57.920Z,31.30
2018-11-28T08:14:25.335Z,31.43
2018-11-28T08:16:52.757Z,29.63
2018-11-28T08:19:23.994Z,30.97
2018-11-28T08:21:47.480Z,31.20
2018-11-28T08:24:14.852Z,30.10
2018-11-28T08:26:42.398Z,32.03
2018-11-28T08:29:09.878Z,29.53
2018-11-28T08:31:37.219Z,30.47
2018-11-28T08:34:04.905Z,30.37
2018-11-28T08:36:32.222Z,30.00
2018-11-28T08:38:59.664Z,29.00
2018-11-28T08:41:27.600Z,29.33
2018-11-28T08:43:54.920Z,29.57
2018-11-28T08:46:22.346Z,29.57
2018-11-28T08:48:49.697Z,28.93
2018-11-28T08:51:17.201Z,28.33
2018-11-28T08:53:45.107Z,28.33
2018-11-28T08:56:12.553Z,28.37
2018-11-28T08:58:39.994Z,26.77
2018-11-28T09:01:07.430Z,27.83
2018-11-28T09:03:38.549Z,29.70
2018-11-28T09:06:06.272Z,28.37
2018-11-28T09:08:33.646Z,26.77
2018-11-28T09:11:01.100Z,28.10
2018-11-28T09:13:28.485Z,28.43
2018-11-28T09:15:55.897Z,28.70
2018-11-28T09:18:24.129Z,27.50
2018-11-28T09:20:51.520Z,28.57
2018-11-28T09:23:18.866Z,29.50
2018-11-28T09:25:46.292Z,26.77
2018-11-28T09:28:13.634Z,26.90
2018-11-28T09:30:41.001Z,27.63
2018-11-28T09:33:08.779Z,29.00
2018-11-28T09:35:35.777Z,29.37
2018-11-28T09:38:03.122Z,28.27
2018-11-28T09:40:30.592Z,28.83
2018-11-28T09:42:58.811Z,28.73
2018-11-28T09:45:26.633Z,29.57
2018-11-28T09:47:54.032Z,28.50
2018-11-28T09:50:22.904Z,29.03
2018-11-28T09:52:50.471Z,28.30
2018-11-28T09:55:19.675Z,29.33
2018-11-28T09:57:47.346Z,28.30
2018-11-28T10:00:18.227Z,28.70
2018-11-28T10:02:45.611Z,27.30
2018-11-28T10:05:15.333Z,27.47
2018-11-28T10:07:42.885Z,28.93
2018-11-28T10:10:11.625Z,27.63
2018-11-28T10:12:38.997Z,28.90
2018-11-28T10:15:12.872Z,27.80
2018-11-28T10:17:40.387Z,26.93
2018-11-28T10:20:09.060Z,26.63
2018-11-28T10:22:36.423Z,27.57
2018-11-28T10:25:04.138Z,29.17
2018-11-28T10:27:31.491Z,27.53
2018-11-28T10:29:59.500Z,27.90
2018-11-28T10:32:26.846Z,27.87
2018-11-28T10:34:54.193Z,28.70
2018-11-28T10:37:21.565Z,26.40
2018-11-28T10:39:49.718Z,25.97
2018-11-28T10:42:17.145Z,26.67
2018-11-28T10:44:44.558Z,26.00
2018-11-28T10:47:12.034Z,26.07
2018-11-28T10:49:39.439Z,26.03
2018-11-28T10:52:06.994Z,25.10
2018-11-28T10:54:34.463Z,26.07
2018-11-28T10:57:01.903Z,25.07
2018-11-28T10:59:29.257Z,24.93
2018-11-28T11:02:02.360Z,24.13
2018-11-28T11:05:34.370Z,24.67
2018-11-28T11:08:07.338Z,24.70
2018-11-28T11:10:40.372Z,24.47
2018-11-28T11:13:13.494Z,25.53
2018-11-28T11:15:41.302Z,23.67
2018-11-28T11:18:10.749Z,22.87
2018-11-28T11:20:37.290Z,23.87
2018-11-28T11:23:06.141Z,22.90
2018-11-28T11:25:33.661Z,24.47
2018-11-28T11:28:01.053Z,22.73
2018-11-28T11:30:28.392Z,22.90
2018-11-28T11:32:55.763Z,22.17
2018-11-28T11:35:23.595Z,22.53
2018-11-28T11:37:51.464Z,22.27
2018-11-28T11:40:23.890Z,22.33
2018-11-28T11:42:51.806Z,21.83
2018-11-28T11:45:19.144Z,20.90
2018-11-28T11:47:46.643Z,21.13
2018-11-28T11:50:16.112Z,20.43
2018-11-28T11:52:43.774Z,19.97
2018-11-28T11:55:13.287Z,19.80
2018-11-28T11:57:40.739Z,18.63
2018-11-28T12:00:14.749Z,18.10
2018-11-28T12:02:43.385Z,18.37
2018-11-28T12:05:11.754Z,18.40
2018-11-28T12:07:39.233Z,19.00
2018-11-28T12:10:10.010Z,20.13
2018-11-28T12:12:37.471Z,20.80
2018-11-28T12:15:07.465Z,19.07
2018-11-28T12:17:35.110Z,18.80
2018-11-28T12:20:02.550Z,18.50
2018-11-28T12:22:29.919Z,18.40
2018-11-28T12:24:57.249Z,20.07
2018-11-28T12:27:24.642Z,19.57
2018-11-28T12:29:52.065Z,20.37
2018-11-28T12:32:19.717Z,20.43
2018-11-28T12:34:50.413Z,21.13
2018-11-28T12:37:14.593Z,20.50
2018-11-28T12:39:42.036Z,21.30
2018-11-28T12:42:09.571Z,20.67
2018-11-28T12:44:37.008Z,21.27
2018-11-28T12:47:05.274Z,21.53
2018-11-28T12:49:32.655Z,21.73
2018-11-28T12:52:00.159Z,21.77
2018-11-28T12:54:27.610Z,21.23
2018-11-28T12:56:55.214Z,21.53
2018-11-28T12:59:22.676Z,21.73
2018-11-28T13:01:50.152Z,21.57
2018-11-28T13:04:17.543Z,20.77
2018-11-28T13:06:44.935Z,22.03
2018-11-28T13:09:12.336Z,22.60
2018-11-28T13:11:39.761Z,23.17
2018-11-28T13:14:07.105Z,23.90
2018-11-28T13:16:34.626Z,21.20
2018-11-28T13:19:02.008Z,22.13
2018-11-28T13:21:29.364Z,20.90
2018-11-28T13:23:56.677Z,20.97
2018-11-28T13:26:24.156Z,22.10
2018-11-28T13:28:51.530Z,23.10
2018-11-28T13:31:18.908Z,21.37
2018-11-28T13:33:46.254Z,22.10
2018-11-28T13:36:13.676Z,21.80
2018-11-28T13:38:41.053Z,23.63
2018-11-28T13:41:08.418Z,23.03
2018-11-28T13:43:36.305Z,22.10
2018-11-28T13:46:07.160Z,22.03
2018-11-28T13:48:31.822Z,21.13
2018-11-28T13:50:59.288Z,23.10
2018-11-28T13:53:26.706Z,20.30
2018-11-28T13:56:57.244Z,21.10
2018-11-28T13:58:23.785Z,22.03
2018-11-28T14:00:51.176Z,21.20
2018-11-28T14:03:18.637Z,21.10
2018-11-28T14:05:46.091Z,19.60
2018-11-28T14:08:13.469Z,20.27
2018-11-28T14:10:40.923Z,20.73
2018-11-28T14:13:08.346Z,20.20
2018-11-28T14:15:35.675Z,20.87
2018-11-28T14:18:12.657Z,20.23
2018-11-28T14:20:44.583Z,19.90
2018-11-28T14:23:12.108Z,19.87
2018-11-28T14:25:39.518Z,23.03
2018-11-28T14:28:07.515Z,21.63
2018-11-28T14:30:36.286Z,22.73
2018-11-28T14:33:03.735Z,20.63
2018-11-28T14:35:31.412Z,19.17
2018-11-28T14:37:58.790Z,19.80
2018-11-28T14:40:26.242Z,19.93
2018-11-28T14:42:54.934Z,18.87
2018-11-28T14:45:22.397Z,19.30
2018-11-28T14:47:50.683Z,20.13
2018-11-28T14:50:19.138Z,20.97
2018-11-28T14:52:47.422Z,18.87
2018-11-28T14:55:17.486Z,19.37
2018-11-28T14:57:44.892Z,20.67
2018-11-28T15:00:15.342Z,19.43
2018-11-28T15:02:42.867Z,19.70
2018-11-28T15:05:14.988Z,19.20
2018-11-28T15:07:42.368Z,20.20
2018-11-28T15:10:11.068Z,18.90
2018-11-28T15:12:38.443Z,18.80
2018-11-28T15:15:07.055Z,20.10
2018-11-28T15:17:34.416Z,21.17
2018-11-28T15:20:01.882Z,20.30
2018-11-28T15:22:29.349Z,20.07
2018-11-28T15:24:56.748Z,20.83
2018-11-28T15:27:24.195Z,18.97
2018-11-28T15:29:52.125Z,19.03
2018-11-28T15:32:19.629Z,19.50
2018-11-28T15:34:47.046Z,19.07
2018-11-28T15:37:14.541Z,18.93
2018-11-28T15:39:42.069Z,21.30
2018-11-28T15:42:09.579Z,20.23
2018-11-28T15:44:37.658Z,20.27
2018-11-28T15:47:05.355Z,20.00
2018-11-28T15:49:32.747Z,21.17
2018-11-28T15:52:00.161Z,21.40
2018-11-28T15:54:27.538Z,20.60
2018-11-28T15:56:54.978Z,21.67
2018-11-28T15:59:22.364Z,20.77
2018-11-28T16:01:49.738Z,21.20
2018-11-28T16:04:17.230Z,21.17
2018-11-28T16:06:44.696Z,20.90
2018-11-28T16:09:17.828Z,20.20
2018-11-28T16:11:45.250Z,20.93
2018-11-28T16:14:12.631Z,21.73
2018-11-28T16:16:40.060Z,21.10
2018-11-28T16:19:07.439Z,20.80
2018-11-28T16:21:34.816Z,20.47
2018-11-28T16:24:02.189Z,20.07
2018-11-28T16:26:30.348Z,20.70
2018-11-28T16:28:57.744Z,21.63
2018-11-28T16:31:25.348Z,20.40
2018-11-28T16:33:52.990Z,22.13
2018-11-28T16:36:20.333Z,22.17
2018-11-28T16:38:47.704Z,21.57
2018-11-28T16:41:15.132Z,21.50
2018-11-28T16:43:42.530Z,25.93
2018-11-28T16:46:09.890Z,22.97
2018-11-28T16:48:37.305Z,21.13
2018-11-28T16:51:05.067Z,21.47
2018-11-28T16:53:32.582Z,20.93
2018-11-28T16:56:00.027Z,22.17
2018-11-28T16:58:27.479Z,19.77
2018-11-28T17:00:54.970Z,20.70
2018-11-28T17:03:22.405Z,20.53
2018-11-28T17:05:50.393Z,20.73
2018-11-28T17:08:17.946Z,22.00
2018-11-28T17:10:45.289Z,21.70
2018-11-28T17:13:12.675Z,21.27
2018-11-28T17:15:40.153Z,21.03
2018-11-28T17:18:07.505Z,20.37
2018-11-28T17:20:36.211Z,20.67
2018-11-28T17:23:04.193Z,21.40
2018-11-28T17:25:32.244Z,19.03
2018-11-28T17:27:59.677Z,19.03
2018-11-28T17:30:28.399Z,19.50
2018-11-28T17:32:55.783Z,20.17
2018-11-28T17:35:23.273Z,20.00
2018-11-28T17:37:51.047Z,18.63
2018-11-28T17:40:21.633Z,20.00
2018-11-28T17:42:50.421Z,19.27
2018-11-28T17:45:18.487Z,19.30
2018-11-28T17:47:46.577Z,19.37
2018-11-28T17:50:16.178Z,20.20
2018-11-28T17:52:46.589Z,18.87
2018-11-28T17:55:16.017Z,29.43
2018-11-28T17:57:43.367Z,23.67
2018-11-28T18:00:12.427Z,19.47
2018-11-28T18:02:40.458Z,17.13
2018-11-28T18:05:09.265Z,18.97
2018-11-28T18:07:36.707Z,19.03
2018-11-28T18:10:07.268Z,17.13
2018-11-28T18:12:34.597Z,19.53
2018-11-28T18:15:02.098Z,19.87
2018-11-28T18:17:29.468Z,18.83
2018-11-28T18:19:57.875Z,19.27
2018-11-28T18:22:25.274Z,19.43
2018-11-28T18:24:52.833Z,18.33
2018-11-28T18:27:20.312Z,18.67
2018-11-28T18:29:47.771Z,19.60
2018-11-28T18:32:15.126Z,17.93
2018-11-28T18:34:42.558Z,18.27
2018-11-28T18:37:09.947Z,18.63
2018-11-28T18:39:37.342Z,19.50
2018-11-28T18:42:04.712Z,19.80
2018-11-28T18:44:32.142Z,19.17
2018-11-28T18:46:59.590Z,19.77
2018-11-28T18:49:27.150Z,17.93
2018-11-28T18:51:54.472Z,19.40
2018-11-28T18:54:21.910Z,19.83
2018-11-28T18:56:49.280Z,22.60
2018-11-28T18:59:17.298Z,21.20
2018-11-28T19:01:48.410Z,20.00
2018-11-28T19:04:12.247Z,19.00
2018-11-28T19:06:39.823Z,19.60
2018-11-28T19:09:10.053Z,19.50
2018-11-28T19:11:37.471Z,18.23
2018-11-28T19:14:05.788Z,18.03
2018-11-28T19:16:37.857Z,18.87
2018-11-28T19:19:00.688Z,20.43
2018-11-28T19:21:28.189Z,18.53
2018-11-28T19:23:55.540Z,18.37
2018-11-28T19:26:22.905Z,19.27
2018-11-28T19:28:50.534Z,19.33
2018-11-28T19:31:18.000Z,18.67
2018-11-28T19:33:46.339Z,19.77
2018-11-28T19:36:13.791Z,19.13
2018-11-28T19:38:41.137Z,18.53
2018-11-28T19:41:13.522Z,19.50
2018-11-28T19:43:41.116Z,18.13
2018-11-28T19:46:08.557Z,19.73
2018-11-28T19:48:36.001Z,20.57
2018-11-28T19:51:03.489Z,19.53
2018-11-28T19:53:30.900Z,18.83
2018-11-28T19:55:58.412Z,18.03
2018-11-28T19:58:25.745Z,18.60
2018-11-28T20:00:53.176Z,20.33
2018-11-28T20:03:20.673Z,20.97
2018-11-28T20:05:48.130Z,19.27
2018-11-28T20:08:15.617Z,19.70
2018-11-28T20:10:42.984Z,20.60
2018-11-28T20:13:10.577Z,19.27
2018-11-28T20:15:40.582Z,20.40
2018-11-28T20:18:08.112Z,20.13
2018-11-28T20:20:35.533Z,20.13
2018-11-28T20:23:03.094Z,19.63
2018-11-28T20:25:30.577Z,20.80
2018-11-28T20:28:00.312Z,20.77
2018-11-28T20:30:31.440Z,19.73
2018-11-28T20:32:58.946Z,18.90
2018-11-28T20:35:26.324Z,18.93
2018-11-28T20:37:53.750Z,19.43
2018-11-28T20:40:21.181Z,19.07
2018-11-28T20:42:50.460Z,19.50
2018-11-28T20:45:17.915Z,18.10
2018-11-28T20:47:45.457Z,18.23
2018-11-28T20:50:15.209Z,19.43
2018-11-28T20:52:44.674Z,18.33
2018-11-28T20:55:12.152Z,20.00
2018-11-28T20:57:39.612Z,20.80
2018-11-28T21:00:10.453Z,19.43
2018-11-28T21:02:37.921Z,18.87
2018-11-28T21:05:05.346Z,19.33
2018-11-28T21:07:32.665Z,19.87
2018-11-28T21:10:05.784Z,19.93
2018-11-28T21:12:33.293Z,19.67
2018-11-28T21:15:01.914Z,19.73
2018-11-28T21:17:29.374Z,19.97
2018-11-28T21:19:56.744Z,20.40
2018-11-28T21:22:24.194Z,20.33
2018-11-28T21:24:51.762Z,19.67
2018-11-28T21:27:19.223Z,18.90
2018-11-28T21:29:46.606Z,19.27
2018-11-28T21:32:13.987Z,19.17
2018-11-28T21:34:41.368Z,19.00
2018-11-28T21:37:08.767Z,19.70
2018-11-28T21:39:36.238Z,19.00
2018-11-28T21:42:04.232Z,18.57
2018-11-28T21:44:31.674Z,18.60
2018-11-28T21:46:59.300Z,18.60
2018-11-28T21:49:26.679Z,18.50
2018-11-28T21:51:54.069Z,19.80
2018-11-28T21:54:21.524Z,18.83
2018-11-28T21:56:49.048Z,18.93
2018-11-28T21:59:17.150Z,18.27
2018-11-28T22:01:44.678Z,19.37
2018-11-28T22:04:12.036Z,18.70
2018-11-28T22:06:39.386Z,19.33
2018-11-28T22:09:08.697Z,18.90
2018-11-28T22:11:36.565Z,19.37
2018-11-28T22:14:04.445Z,19.20
2018-11-28T22:16:31.789Z,18.97
2018-11-28T22:18:59.199Z,18.87
2018-11-28T22:21:26.651Z,19.33
2018-11-28T22:23:54.143Z,18.93
2018-11-28T22:26:21.485Z,17.97
2018-11-28T22:28:49.073Z,19.07
2018-11-28T22:31:16.474Z,19.93
2018-11-28T22:33:44.457Z,19.13
2018-11-28T22:36:11.818Z,18.63
2018-11-28T22:38:39.187Z,18.23
2018-11-28T22:41:06.591Z,19.37
2018-11-28T22:43:34.490Z,19.67
2018-11-28T22:46:01.817Z,18.40
2018-11-28T22:48:29.352Z,18.47
2018-11-28T22:50:56.666Z,18.10
2018-11-28T22:53:24.070Z,18.87
2018-11-28T22:55:51.946Z,18.77
2018-11-28T22:58:19.339Z,19.33
2018-11-28T23:00:52.508Z,19.67
2018-11-28T23:03:19.908Z,19.00
2018-11-28T23:05:50.422Z,19.90
2018-11-28T23:08:18.728Z,19.90
2018-11-28T23:10:46.584Z,18.47
2018-11-28T23:13:16.124Z,19.03
2018-11-28T23:15:43.552Z,19.57
2018-11-28T23:18:11.320Z,19.90
2018-11-28T23:20:38.853Z,18.53
2018-11-28T23:23:07.321Z,19.40
2018-11-28T23:25:34.841Z,18.47
2018-11-28T23:28:02.933Z,18.30
2018-11-28T23:30:30.363Z,19.53
2018-11-28T23:32:57.768Z,17.77
2018-11-28T23:35:25.340Z,19.27
2018-11-28T23:37:52.696Z,17.97
2018-11-28T23:40:25.239Z,19.10
2018-11-28T23:42:53.529Z,19.53
2018-11-28T23:45:21.433Z,18.07
2018-11-28T23:47:49.335Z,18.60
2018-11-28T23:50:18.533Z,18.23
2018-11-28T23:52:46.327Z,18.43
2018-11-28T23:55:14.745Z,18.13
2018-11-28T23:57:42.177Z,18.50
